Aérodrome :
LOGIN :

S'inscrire | Disclaimer

   EN    FR    IT 

 










Légende :    VFR   VFR Marginal   IFR   IFR Intensif   IFR Très Intensif
Visi : 
Plafond : 
>= 8 km
>= 3000ft
5 à 8 km
1000 à 3000 ft
1500m à 5 km
500 à 1000 ft
800 à 1500m
200 à 500 ft
< 800m
< 200 ft
Symboles :   Orages  Brouillard  Fortes neiges  Fortes précipitations  Vent > 20 kt
SIGMETs :   Divers  Orages  Givrage  Turbulence  Onde Orograph.  Cendres Volcan.






- Altitude de l'aérodrome : 781 ft
- Code IATA : SKP


LWSK - Skopje

DERNIER METAR :
  • 201400Z 12008KT 090V190 9999 FEW050 16/12 Q1015 NOSIG

METARs EXPIRÉS :
  • 201330Z 14010KT 120V180 9999 FEW050 17/12 Q1015 NOSIG
  • 201300Z 12006KT 9999 SCT040 17/12 Q1015 NOSIG
  • 201230Z 13012KT 9999 SCT040 17/12 Q1015 NOSIG
  • 201200Z 16010KT 9999 SCT040 16/12 Q1015 NOSIG
  • 201130Z 13012KT 9999 SCT030 BKN100 15/13 Q1015 NOSIG

TAF TAF LWSK
Valide du 20 à 12h jusqu'au 21 à 12h UTC


201130Z 2012/2112 15006KT 9999 SCT050
TEMPO 2012/2018 13012KT
BECMG 2100/2102 VRB02KT 5000 BR SCT025



MET'MAP, la Météo Aéronautique d'un coup d'oeil ! - Copyright ORBIFLY Décembre 2007 - Disclaimer

ORBIFLY MET'MAP TEAM :

Programmation & Développement : Alexandra Zaïnal
Conception & Développement : Baudouin d'Aumeries
Co-Programmation & Développement : Marc-Olivier Méhu
Soutien technique & logistique : Manuel Goepfert

Contact : metmap@orbifly.com




SOURCES & CREDITS :

   NOAA